WESTPORT MEDIA Westport In The Media

Enter your "Place, State", US Zip Code or ICAO:  

Palma De Mallorca / Son San Juan, Spain

 Lat: 39.55N, Lon: 2.73E
ICAO Used: LEPA
Current Conditions
Updated: 8:30 PM GMT1 THU JUL 24 2014
Sun & Moon Information
Fair
Fair
Temp: 28°C
Humidity: 45%
Wind Speed: ESE 5 MPH
Barometer: 1010 mb
Dewpoint: 15°C
Heat Index: 28°C
Wind Chill: 28°C
Civil Twilight: 5:10 AM GMT1 Moon Phase:
Waning Crescent Moon
Sunrise: 5:40 AM GMT1
Sunset: 8:08 PM GMT1
Civil Twilight: 8:39 PM GMT1
Forecast for Palma De Mallorca / Son San Juan, Spain:
(Forecast based on TAF for )
0700 PM GMT1 THU JUL 24 2014
  
EVENING OVERNIGHT
Fair Fair
ZoneCast:
Dated: 0700 PM GMT1 THU JUL 24 2014
Evening...Becoming fair winds variable in direction at 3 mph.

Overnight...Fair winds variable in direction at 3 mph.

Original Encoded TAF:
Dated: 0700 PM GMT1 THU JUL 24 2014
TAF LEPA 241700Z 2418/2518 27010KT 9999 FEW014 TX30/2512Z TN19/2506Z 
     BECMG 2418/2421 VRB03KT 
     TEMPO 2506/2514 07010KT 
     PROB30 
     TEMPO 2507/2512 FEW030CB 
     TEMPO 2512/2518 24009KT